sensor_id;sensor_type;location;lat;lon;timestamp;P1;durP1;ratioP1;P2;durP2;ratioP2
57233;SDS011;43090;52.604;13.318;2023-04-07T00:02:12;21.33;;;10.73;;
57233;SDS011;43090;52.604;13.318;2023-04-07T00:07:05;19.50;;;10.48;;
57233;SDS011;43090;52.604;13.318;2023-04-07T00:09:32;20.98;;;10.23;;
57233;SDS011;43090;52.604;13.318;2023-04-07T00:11:58;18.10;;;10.93;;
57233;SDS011;43090;52.604;13.318;2023-04-07T00:14:27;26.40;;;10.95;;
57233;SDS011;43090;52.604;13.318;2023-04-07T00:16:54;19.33;;;10.30;;
57233;SDS011;43090;52.604;13.318;2023-04-07T00:19:20;24.65;;;11.75;;
57233;SDS011;43090;52.604;13.318;2023-04-07T00:21:47;17.98;;;10.48;;
57233;SDS011;43090;52.604;13.318;2023-04-07T00:24:13;20.77;;;10.80;;
57233;SDS011;43090;52.604;13.318;2023-04-07T00:26:52;21.70;;;10.88;;
57233;SDS011;43090;52.604;13.318;2023-04-07T00:29:19;20.00;;;10.25;;
57233;SDS011;43090;52.604;13.318;2023-04-07T00:31:45;20.50;;;10.63;;
57233;SDS011;43090;52.604;13.318;2023-04-07T00:34:11;23.05;;;12.25;;
57233;SDS011;43090;52.604;13.318;2023-04-07T00:36:39;18.80;;;10.23;;
57233;SDS011;43090;52.604;13.318;2023-04-07T00:39:06;22.05;;;11.77;;
57233;SDS011;43090;52.604;13.318;2023-04-07T00:41:33;22.15;;;10.30;;
57233;SDS011;43090;52.604;13.318;2023-04-07T00:44:01;16.55;;;9.25;;
57233;SDS011;43090;52.604;13.318;2023-04-07T00:46:27;20.08;;;10.55;;
57233;SDS011;43090;52.604;13.318;2023-04-07T00:48:54;21.20;;;10.25;;
57233;SDS011;43090;52.604;13.318;2023-04-07T00:51:20;28.42;;;11.18;;
57233;SDS011;43090;52.604;13.318;2023-04-07T00:53:48;22.58;;;10.23;;
57233;SDS011;43090;52.604;13.318;2023-04-07T00:56:15;16.58;;;10.35;;
57233;SDS011;43090;52.604;13.318;2023-04-07T00:58:41;16.67;;;9.77;;
57233;SDS011;43090;52.604;13.318;2023-04-07T01:01:12;22.63;;;9.73;;
57233;SDS011;43090;52.604;13.318;2023-04-07T01:06:15;19.88;;;10.10;;
57233;SDS011;43090;52.604;13.318;2023-04-07T01:09:04;20.60;;;10.38;;
57233;SDS011;43090;52.604;13.318;2023-04-07T01:11:41;21.38;;;10.52;;
57233;SDS011;43090;52.604;13.318;2023-04-07T01:14:13;22.35;;;9.73;;
57233;SDS011;43090;52.604;13.318;2023-04-07T01:16:44;18.63;;;10.13;;
57233;SDS011;43090;52.604;13.318;2023-04-07T01:21:58;20.58;;;10.02;;
57233;SDS011;43090;52.604;13.318;2023-04-07T01:30:04;18.65;;;9.55;;
57233;SDS011;43090;52.604;13.318;2023-04-07T01:32:35;18.48;;;9.73;;
57233;SDS011;43090;52.604;13.318;2023-04-07T01:51:05;23.92;;;10.82;;
57233;SDS011;43090;52.604;13.318;2023-04-07T01:53:33;20.48;;;9.00;;
57233;SDS011;43090;52.604;13.318;2023-04-07T01:56:03;16.95;;;9.80;;
57233;SDS011;43090;52.604;13.318;2023-04-07T01:58:30;19.13;;;9.90;;
57233;SDS011;43090;52.604;13.318;2023-04-07T02:00:57;16.65;;;9.38;;
57233;SDS011;43090;52.604;13.318;2023-04-07T02:06:34;19.10;;;9.68;;
57233;SDS011;43090;52.604;13.318;2023-04-07T02:09:08;17.08;;;10.27;;
57233;SDS011;43090;52.604;13.318;2023-04-07T02:11:36;20.20;;;9.15;;
57233;SDS011;43090;52.604;13.318;2023-04-07T02:14:06;16.50;;;9.27;;
57233;SDS011;43090;52.604;13.318;2023-04-07T02:16:34;17.73;;;9.98;;
57233;SDS011;43090;52.604;13.318;2023-04-07T02:19:02;20.23;;;9.38;;
57233;SDS011;43090;52.604;13.318;2023-04-07T02:21:29;19.90;;;8.98;;
57233;SDS011;43090;52.604;13.318;2023-04-07T02:24:04;15.25;;;8.52;;
57233;SDS011;43090;52.604;13.318;2023-04-07T02:26:35;21.70;;;9.45;;
57233;SDS011;43090;52.604;13.318;2023-04-07T02:29:02;19.33;;;8.77;;
57233;SDS011;43090;52.604;13.318;2023-04-07T02:31:29;16.63;;;8.88;;
57233;SDS011;43090;52.604;13.318;2023-04-07T02:33:56;16.20;;;9.15;;
57233;SDS011;43090;52.604;13.318;2023-04-07T02:36:23;16.70;;;9.27;;
57233;SDS011;43090;52.604;13.318;2023-04-07T02:38:49;15.65;;;7.95;;
57233;SDS011;43090;52.604;13.318;2023-04-07T02:41:16;18.75;;;9.23;;
57233;SDS011;43090;52.604;13.318;2023-04-07T02:43:42;19.77;;;8.43;;
57233;SDS011;43090;52.604;13.318;2023-04-07T02:46:09;17.50;;;8.40;;
57233;SDS011;43090;52.604;13.318;2023-04-07T02:48:35;15.75;;;8.40;;
57233;SDS011;43090;52.604;13.318;2023-04-07T02:51:02;17.23;;;8.85;;
57233;SDS011;43090;52.604;13.318;2023-04-07T02:53:28;15.05;;;8.27;;
57233;SDS011;43090;52.604;13.318;2023-04-07T02:55:54;14.25;;;8.05;;
57233;SDS011;43090;52.604;13.318;2023-04-07T02:58:21;14.98;;;8.13;;
57233;SDS011;43090;52.604;13.318;2023-04-07T03:03:16;18.10;;;9.07;;
57233;SDS011;43090;52.604;13.318;2023-04-07T03:05:42;15.68;;;8.63;;
57233;SDS011;43090;52.604;13.318;2023-04-07T03:08:09;23.05;;;9.88;;
57233;SDS011;43090;52.604;13.318;2023-04-07T03:10:38;15.52;;;8.25;;
57233;SDS011;43090;52.604;13.318;2023-04-07T03:13:04;21.02;;;9.30;;
57233;SDS011;43090;52.604;13.318;2023-04-07T03:15:31;19.95;;;9.43;;
57233;SDS011;43090;52.604;13.318;2023-04-07T03:17:57;14.27;;;8.10;;
57233;SDS011;43090;52.604;13.318;2023-04-07T03:20:24;14.85;;;8.48;;
57233;SDS011;43090;52.604;13.318;2023-04-07T03:22:50;15.05;;;8.52;;
57233;SDS011;43090;52.604;13.318;2023-04-07T03:25:17;17.20;;;8.20;;
57233;SDS011;43090;52.604;13.318;2023-04-07T03:27:43;20.77;;;8.43;;
57233;SDS011;43090;52.604;13.318;2023-04-07T03:30:10;17.02;;;7.65;;
57233;SDS011;43090;52.604;13.318;2023-04-07T03:35:03;19.35;;;7.65;;
57233;SDS011;43090;52.604;13.318;2023-04-07T03:39:56;15.45;;;8.10;;
57233;SDS011;43090;52.604;13.318;2023-04-07T03:42:23;15.80;;;7.60;;
57233;SDS011;43090;52.604;13.318;2023-04-07T03:44:49;16.83;;;8.23;;
57233;SDS011;43090;52.604;13.318;2023-04-07T03:49:42;16.15;;;8.85;;
57233;SDS011;43090;52.604;13.318;2023-04-07T03:52:09;19.48;;;8.27;;
57233;SDS011;43090;52.604;13.318;2023-04-07T03:54:36;16.73;;;8.40;;
57233;SDS011;43090;52.604;13.318;2023-04-07T03:57:02;17.33;;;8.65;;
57233;SDS011;43090;52.604;13.318;2023-04-07T04:01:55;19.15;;;8.50;;
57233;SDS011;43090;52.604;13.318;2023-04-07T04:06:49;19.27;;;8.32;;
57233;SDS011;43090;52.604;13.318;2023-04-07T04:11:42;16.80;;;7.88;;
57233;SDS011;43090;52.604;13.318;2023-04-07T04:14:09;21.05;;;7.75;;
57233;SDS011;43090;52.604;13.318;2023-04-07T04:16:35;16.73;;;8.02;;
57233;SDS011;43090;52.604;13.318;2023-04-07T04:19:02;15.27;;;7.07;;
57233;SDS011;43090;52.604;13.318;2023-04-07T04:21:28;12.98;;;8.40;;
57233;SDS011;43090;52.604;13.318;2023-04-07T04:23:55;22.83;;;7.35;;
57233;SDS011;43090;52.604;13.318;2023-04-07T04:26:21;16.35;;;7.53;;
57233;SDS011;43090;52.604;13.318;2023-04-07T04:28:51;19.60;;;9.63;;
57233;SDS011;43090;52.604;13.318;2023-04-07T04:31:18;15.80;;;8.18;;
57233;SDS011;43090;52.604;13.318;2023-04-07T04:36:11;12.98;;;7.63;;
57233;SDS011;43090;52.604;13.318;2023-04-07T04:38:38;13.13;;;7.55;;
57233;SDS011;43090;52.604;13.318;2023-04-07T04:41:05;19.77;;;7.68;;
57233;SDS011;43090;52.604;13.318;2023-04-07T04:43:31;16.40;;;8.38;;
57233;SDS011;43090;52.604;13.318;2023-04-07T04:45:57;14.10;;;7.47;;
57233;SDS011;43090;52.604;13.318;2023-04-07T04:48:24;17.13;;;7.90;;
57233;SDS011;43090;52.604;13.318;2023-04-07T04:50:50;12.73;;;7.90;;
57233;SDS011;43090;52.604;13.318;2023-04-07T04:53:17;20.98;;;7.63;;
57233;SDS011;43090;52.604;13.318;2023-04-07T04:55:43;16.77;;;8.20;;
57233;SDS011;43090;52.604;13.318;2023-04-07T04:58:12;18.48;;;8.02;;
57233;SDS011;43090;52.604;13.318;2023-04-07T05:00:38;14.88;;;7.75;;
57233;SDS011;43090;52.604;13.318;2023-04-07T05:03:05;15.68;;;7.57;;
57233;SDS011;43090;52.604;13.318;2023-04-07T05:05:32;15.02;;;7.88;;
57233;SDS011;43090;52.604;13.318;2023-04-07T05:10:25;16.80;;;8.07;;
57233;SDS011;43090;52.604;13.318;2023-04-07T05:12:51;19.63;;;8.48;;
57233;SDS011;43090;52.604;13.318;2023-04-07T05:15:18;18.23;;;7.57;;
57233;SDS011;43090;52.604;13.318;2023-04-07T05:17:45;18.55;;;8.85;;
57233;SDS011;43090;52.604;13.318;2023-04-07T05:20:15;17.52;;;8.65;;
57233;SDS011;43090;52.604;13.318;2023-04-07T05:22:42;18.02;;;8.15;;
57233;SDS011;43090;52.604;13.318;2023-04-07T05:25:09;17.27;;;8.75;;
57233;SDS011;43090;52.604;13.318;2023-04-07T05:27:35;24.10;;;9.73;;
57233;SDS011;43090;52.604;13.318;2023-04-07T05:30:02;16.33;;;8.55;;
57233;SDS011;43090;52.604;13.318;2023-04-07T05:32:29;18.95;;;9.05;;
57233;SDS011;43090;52.604;13.318;2023-04-07T05:37:22;17.92;;;9.15;;
57233;SDS011;43090;52.604;13.318;2023-04-07T05:39:48;17.40;;;9.40;;
57233;SDS011;43090;52.604;13.318;2023-04-07T05:42:15;20.75;;;9.18;;
57233;SDS011;43090;52.604;13.318;2023-04-07T05:44:41;21.13;;;10.02;;
57233;SDS011;43090;52.604;13.318;2023-04-07T05:47:07;17.88;;;9.18;;
57233;SDS011;43090;52.604;13.318;2023-04-07T05:49:34;16.55;;;9.43;;
57233;SDS011;43090;52.604;13.318;2023-04-07T05:54:28;19.83;;;9.80;;
57233;SDS011;43090;52.604;13.318;2023-04-07T05:56:55;20.98;;;9.77;;
57233;SDS011;43090;52.604;13.318;2023-04-07T05:59:21;30.33;;;10.05;;
57233;SDS011;43090;52.604;13.318;2023-04-07T06:01:48;21.58;;;10.45;;
57233;SDS011;43090;52.604;13.318;2023-04-07T06:04:14;20.48;;;9.85;;
57233;SDS011;43090;52.604;13.318;2023-04-07T06:06:41;21.92;;;10.73;;
57233;SDS011;43090;52.604;13.318;2023-04-07T06:09:07;23.25;;;10.23;;
57233;SDS011;43090;52.604;13.318;2023-04-07T06:11:34;22.83;;;9.95;;
57233;SDS011;43090;52.604;13.318;2023-04-07T06:14:00;23.80;;;11.18;;
57233;SDS011;43090;52.604;13.318;2023-04-07T06:16:27;26.77;;;10.85;;
57233;SDS011;43090;52.604;13.318;2023-04-07T06:21:20;22.50;;;9.73;;
57233;SDS011;43090;52.604;13.318;2023-04-07T06:23:46;20.02;;;9.32;;
57233;SDS011;43090;52.604;13.318;2023-04-07T06:26:13;20.20;;;9.93;;
57233;SDS011;43090;52.604;13.318;2023-04-07T06:28:40;22.95;;;9.52;;
57233;SDS011;43090;52.604;13.318;2023-04-07T06:33:33;22.55;;;9.43;;
57233;SDS011;43090;52.604;13.318;2023-04-07T06:38:27;16.15;;;8.63;;
57233;SDS011;43090;52.604;13.318;2023-04-07T06:40:53;21.65;;;10.00;;
57233;SDS011;43090;52.604;13.318;2023-04-07T06:43:20;18.67;;;8.75;;
57233;SDS011;43090;52.604;13.318;2023-04-07T06:45:46;17.90;;;8.38;;
57233;SDS011;43090;52.604;13.318;2023-04-07T06:48:13;19.90;;;8.18;;
57233;SDS011;43090;52.604;13.318;2023-04-07T06:50:39;20.15;;;9.05;;
57233;SDS011;43090;52.604;13.318;2023-04-07T06:53:06;22.27;;;8.38;;
57233;SDS011;43090;52.604;13.318;2023-04-07T06:55:32;18.88;;;7.68;;
57233;SDS011;43090;52.604;13.318;2023-04-07T06:57:59;17.92;;;8.63;;
57233;SDS011;43090;52.604;13.318;2023-04-07T07:00:25;19.63;;;7.82;;
57233;SDS011;43090;52.604;13.318;2023-04-07T07:02:54;18.27;;;8.15;;
57233;SDS011;43090;52.604;13.318;2023-04-07T07:05:21;15.20;;;7.55;;
57233;SDS011;43090;52.604;13.318;2023-04-07T07:07:48;17.02;;;7.72;;
57233;SDS011;43090;52.604;13.318;2023-04-07T07:10:16;18.73;;;8.38;;
57233;SDS011;43090;52.604;13.318;2023-04-07T07:12:42;19.05;;;8.63;;
57233;SDS011;43090;52.604;13.318;2023-04-07T07:15:09;18.17;;;7.78;;
57233;SDS011;43090;52.604;13.318;2023-04-07T07:17:35;17.17;;;8.82;;
57233;SDS011;43090;52.604;13.318;2023-04-07T07:20:05;18.02;;;8.45;;
57233;SDS011;43090;52.604;13.318;2023-04-07T07:22:32;16.98;;;7.82;;
57233;SDS011;43090;52.604;13.318;2023-04-07T07:24:58;34.42;;;8.05;;
57233;SDS011;43090;52.604;13.318;2023-04-07T07:27:25;14.43;;;7.68;;
57233;SDS011;43090;52.604;13.318;2023-04-07T07:32:18;16.80;;;7.15;;
57233;SDS011;43090;52.604;13.318;2023-04-07T07:34:45;14.82;;;7.90;;
57233;SDS011;43090;52.604;13.318;2023-04-07T07:37:11;22.38;;;8.48;;
57233;SDS011;43090;52.604;13.318;2023-04-07T07:39:38;16.70;;;7.38;;
57233;SDS011;43090;52.604;13.318;2023-04-07T07:42:05;19.95;;;6.75;;
57233;SDS011;43090;52.604;13.318;2023-04-07T07:44:32;16.70;;;7.38;;
57233;SDS011;43090;52.604;13.318;2023-04-07T07:46:58;17.05;;;7.47;;
57233;SDS011;43090;52.604;13.318;2023-04-07T07:51:52;14.95;;;7.40;;
57233;SDS011;43090;52.604;13.318;2023-04-07T07:56:45;16.00;;;5.93;;
57233;SDS011;43090;52.604;13.318;2023-04-07T07:59:11;15.52;;;6.68;;
57233;SDS011;43090;52.604;13.318;2023-04-07T08:01:38;14.73;;;6.40;;
57233;SDS011;43090;52.604;13.318;2023-04-07T08:04:04;12.23;;;6.72;;
57233;SDS011;43090;52.604;13.318;2023-04-07T08:06:31;12.25;;;6.40;;
57233;SDS011;43090;52.604;13.318;2023-04-07T08:08:57;13.95;;;6.30;;
57233;SDS011;43090;52.604;13.318;2023-04-07T08:11:24;13.18;;;5.93;;
57233;SDS011;43090;52.604;13.318;2023-04-07T08:13:50;17.73;;;6.72;;
57233;SDS011;43090;52.604;13.318;2023-04-07T08:16:19;11.02;;;5.95;;
57233;SDS011;43090;52.604;13.318;2023-04-07T08:18:47;16.50;;;6.63;;
57233;SDS011;43090;52.604;13.318;2023-04-07T08:21:14;17.73;;;6.55;;
57233;SDS011;43090;52.604;13.318;2023-04-07T08:23:41;10.23;;;4.80;;
57233;SDS011;43090;52.604;13.318;2023-04-07T08:28:34;10.75;;;5.10;;
57233;SDS011;43090;52.604;13.318;2023-04-07T08:31:01;13.20;;;5.70;;
57233;SDS011;43090;52.604;13.318;2023-04-07T08:33:27;14.30;;;5.05;;
57233;SDS011;43090;52.604;13.318;2023-04-07T08:35:54;10.68;;;5.30;;
57233;SDS011;43090;52.604;13.318;2023-04-07T08:38:20;11.20;;;4.95;;
57233;SDS011;43090;52.604;13.318;2023-04-07T08:40:48;10.55;;;5.45;;
57233;SDS011;43090;52.604;13.318;2023-04-07T08:43:23;10.80;;;5.13;;
57233;SDS011;43090;52.604;13.318;2023-04-07T08:45:52;12.50;;;4.82;;
57233;SDS011;43090;52.604;13.318;2023-04-07T08:48:22;10.20;;;4.03;;
57233;SDS011;43090;52.604;13.318;2023-04-07T08:50:52;10.50;;;4.63;;
57233;SDS011;43090;52.604;13.318;2023-04-07T08:53:22;11.10;;;4.40;;
57233;SDS011;43090;52.604;13.318;2023-04-07T08:55:54;12.98;;;4.75;;
57233;SDS011;43090;52.604;13.318;2023-04-07T08:58:21;12.52;;;4.50;;
57233;SDS011;43090;52.604;13.318;2023-04-07T09:00:49;11.50;;;4.30;;
57233;SDS011;43090;52.604;13.318;2023-04-07T09:03:16;7.50;;;3.80;;
57233;SDS011;43090;52.604;13.318;2023-04-07T09:05:44;9.82;;;4.00;;
57233;SDS011;43090;52.604;13.318;2023-04-07T09:08:11;10.20;;;3.72;;
57233;SDS011;43090;52.604;13.318;2023-04-07T09:10:38;13.23;;;3.95;;
57233;SDS011;43090;52.604;13.318;2023-04-07T09:13:04;8.95;;;3.70;;
57233;SDS011;43090;52.604;13.318;2023-04-07T09:17:58;8.77;;;3.47;;
57233;SDS011;43090;52.604;13.318;2023-04-07T09:20:24;10.05;;;3.80;;
57233;SDS011;43090;52.604;13.318;2023-04-07T09:22:51;6.85;;;3.53;;
57233;SDS011;43090;52.604;13.318;2023-04-07T09:25:18;7.15;;;3.88;;
57233;SDS011;43090;52.604;13.318;2023-04-07T09:27:53;9.45;;;3.85;;
57233;SDS011;43090;52.604;13.318;2023-04-07T09:30:19;12.70;;;3.70;;
57233;SDS011;43090;52.604;13.318;2023-04-07T09:32:46;17.02;;;4.03;;
57233;SDS011;43090;52.604;13.318;2023-04-07T09:35:12;7.57;;;3.80;;
57233;SDS011;43090;52.604;13.318;2023-04-07T09:37:39;8.45;;;3.50;;
57233;SDS011;43090;52.604;13.318;2023-04-07T09:40:08;8.07;;;3.72;;
57233;SDS011;43090;52.604;13.318;2023-04-07T09:42:43;13.05;;;3.30;;
57233;SDS011;43090;52.604;13.318;2023-04-07T09:45:11;7.38;;;3.88;;
57233;SDS011;43090;52.604;13.318;2023-04-07T09:47:46;8.00;;;3.55;;
57233;SDS011;43090;52.604;13.318;2023-04-07T09:52:51;9.18;;;3.40;;
57233;SDS011;43090;52.604;13.318;2023-04-07T09:55:19;12.73;;;4.20;;
57233;SDS011;43090;52.604;13.318;2023-04-07T09:57:48;7.63;;;3.45;;
57233;SDS011;43090;52.604;13.318;2023-04-07T10:00:16;6.97;;;3.60;;
57233;SDS011;43090;52.604;13.318;2023-04-07T10:02:43;9.18;;;3.30;;
57233;SDS011;43090;52.604;13.318;2023-04-07T10:05:10;8.65;;;4.05;;
57233;SDS011;43090;52.604;13.318;2023-04-07T10:07:36;8.27;;;3.20;;
57233;SDS011;43090;52.604;13.318;2023-04-07T10:10:03;7.68;;;3.15;;
57233;SDS011;43090;52.604;13.318;2023-04-07T10:12:32;9.35;;;3.15;;
57233;SDS011;43090;52.604;13.318;2023-04-07T10:14:59;15.32;;;3.80;;
57233;SDS011;43090;52.604;13.318;2023-04-07T10:17:27;6.35;;;3.40;;
57233;SDS011;43090;52.604;13.318;2023-04-07T10:19:55;7.00;;;3.50;;
57233;SDS011;43090;52.604;13.318;2023-04-07T10:22:24;8.20;;;3.58;;
57233;SDS011;43090;52.604;13.318;2023-04-07T10:24:59;6.80;;;3.05;;
57233;SDS011;43090;52.604;13.318;2023-04-07T10:27:36;10.63;;;4.22;;
57233;SDS011;43090;52.604;13.318;2023-04-07T10:30:21;10.45;;;3.40;;
57233;SDS011;43090;52.604;13.318;2023-04-07T10:32:50;11.25;;;3.35;;
57233;SDS011;43090;52.604;13.318;2023-04-07T10:35:18;7.35;;;3.85;;
57233;SDS011;43090;52.604;13.318;2023-04-07T10:40:32;4.40;;;3.08;;
57233;SDS011;43090;52.604;13.318;2023-04-07T10:43:05;7.35;;;3.90;;
57233;SDS011;43090;52.604;13.318;2023-04-07T10:48:12;7.55;;;3.45;;
57233;SDS011;43090;52.604;13.318;2023-04-07T10:50:40;6.60;;;3.58;;
57233;SDS011;43090;52.604;13.318;2023-04-07T10:53:08;7.90;;;3.70;;
57233;SDS011;43090;52.604;13.318;2023-04-07T10:55:44;10.23;;;3.88;;
57233;SDS011;43090;52.604;13.318;2023-04-07T10:58:12;10.13;;;4.80;;
57233;SDS011;43090;52.604;13.318;2023-04-07T11:00:38;7.60;;;3.63;;
57233;SDS011;43090;52.604;13.318;2023-04-07T11:03:09;13.07;;;4.75;;
57233;SDS011;43090;52.604;13.318;2023-04-07T11:05:39;12.13;;;4.85;;
57233;SDS011;43090;52.604;13.318;2023-04-07T11:08:06;10.18;;;5.07;;
57233;SDS011;43090;52.604;13.318;2023-04-07T11:13:04;10.43;;;4.85;;
57233;SDS011;43090;52.604;13.318;2023-04-07T11:15:33;8.55;;;5.00;;
57233;SDS011;43090;52.604;13.318;2023-04-07T11:18:08;9.57;;;5.00;;
57233;SDS011;43090;52.604;13.318;2023-04-07T11:20:42;12.65;;;6.07;;
57233;SDS011;43090;52.604;13.318;2023-04-07T11:25:51;10.50;;;5.63;;
57233;SDS011;43090;52.604;13.318;2023-04-07T11:28:19;10.65;;;5.18;;
57233;SDS011;43090;52.604;13.318;2023-04-07T11:33:15;11.93;;;5.93;;
57233;SDS011;43090;52.604;13.318;2023-04-07T11:35:54;11.98;;;6.78;;
57233;SDS011;43090;52.604;13.318;2023-04-07T11:38:23;9.90;;;6.20;;
57233;SDS011;43090;52.604;13.318;2023-04-07T11:40:53;14.38;;;6.80;;
57233;SDS011;43090;52.604;13.318;2023-04-07T11:43:24;10.88;;;6.50;;
57233;SDS011;43090;52.604;13.318;2023-04-07T11:46:05;15.02;;;7.55;;
57233;SDS011;43090;52.604;13.318;2023-04-07T11:48:33;13.23;;;6.85;;
57233;SDS011;43090;52.604;13.318;2023-04-07T11:51:03;18.20;;;7.25;;
57233;SDS011;43090;52.604;13.318;2023-04-07T11:53:39;13.10;;;6.15;;
57233;SDS011;43090;52.604;13.318;2023-04-07T11:58:37;10.65;;;5.63;;
57233;SDS011;43090;52.604;13.318;2023-04-07T12:01:05;12.93;;;5.90;;
57233;SDS011;43090;52.604;13.318;2023-04-07T12:03:34;11.85;;;5.57;;
57233;SDS011;43090;52.604;13.318;2023-04-07T12:06:04;11.40;;;5.05;;
57233;SDS011;43090;52.604;13.318;2023-04-07T12:08:38;10.43;;;5.05;;
57233;SDS011;43090;52.604;13.318;2023-04-07T12:11:06;7.57;;;4.68;;
57233;SDS011;43090;52.604;13.318;2023-04-07T12:13:37;11.02;;;4.53;;
57233;SDS011;43090;52.604;13.318;2023-04-07T12:16:04;9.30;;;4.70;;
57233;SDS011;43090;52.604;13.318;2023-04-07T12:18:30;9.75;;;4.60;;
57233;SDS011;43090;52.604;13.318;2023-04-07T12:20:57;9.02;;;5.35;;
57233;SDS011;43090;52.604;13.318;2023-04-07T12:25:50;7.22;;;3.78;;
57233;SDS011;43090;52.604;13.318;2023-04-07T12:30:43;7.63;;;3.92;;
57233;SDS011;43090;52.604;13.318;2023-04-07T12:33:10;6.22;;;3.42;;
57233;SDS011;43090;52.604;13.318;2023-04-07T12:35:36;7.38;;;3.70;;
57233;SDS011;43090;52.604;13.318;2023-04-07T12:38:04;5.57;;;3.33;;
57233;SDS011;43090;52.604;13.318;2023-04-07T12:40:30;6.18;;;3.72;;
57233;SDS011;43090;52.604;13.318;2023-04-07T12:42:57;5.50;;;3.20;;
57233;SDS011;43090;52.604;13.318;2023-04-07T12:47:50;5.65;;;3.10;;
57233;SDS011;43090;52.604;13.318;2023-04-07T12:50:17;4.93;;;2.90;;
57233;SDS011;43090;52.604;13.318;2023-04-07T12:55:10;5.93;;;2.50;;
57233;SDS011;43090;52.604;13.318;2023-04-07T12:57:36;6.68;;;2.95;;
57233;SDS011;43090;52.604;13.318;2023-04-07T13:00:03;4.90;;;2.40;;
57233;SDS011;43090;52.604;13.318;2023-04-07T13:02:31;5.13;;;2.80;;
57233;SDS011;43090;52.604;13.318;2023-04-07T13:04:58;5.57;;;2.55;;
57233;SDS011;43090;52.604;13.318;2023-04-07T13:07:24;5.43;;;3.28;;
57233;SDS011;43090;52.604;13.318;2023-04-07T13:09:50;29.95;;;3.85;;
57233;SDS011;43090;52.604;13.318;2023-04-07T13:12:17;11.98;;;2.92;;
57233;SDS011;43090;52.604;13.318;2023-04-07T13:14:43;7.72;;;2.97;;
57233;SDS011;43090;52.604;13.318;2023-04-07T13:17:24;13.38;;;3.38;;
57233;SDS011;43090;52.604;13.318;2023-04-07T13:19:51;19.25;;;3.97;;
57233;SDS011;43090;52.604;13.318;2023-04-07T13:22:17;26.90;;;4.10;;
57233;SDS011;43090;52.604;13.318;2023-04-07T13:24:51;5.32;;;3.10;;
57233;SDS011;43090;52.604;13.318;2023-04-07T13:27:18;11.88;;;3.85;;
57233;SDS011;43090;52.604;13.318;2023-04-07T13:29:44;9.05;;;3.13;;
57233;SDS011;43090;52.604;13.318;2023-04-07T13:32:10;8.13;;;2.83;;
57233;SDS011;43090;52.604;13.318;2023-04-07T13:34:38;8.73;;;3.55;;
57233;SDS011;43090;52.604;13.318;2023-04-07T13:39:31;24.92;;;4.50;;
57233;SDS011;43090;52.604;13.318;2023-04-07T13:41:58;6.82;;;3.20;;
57233;SDS011;43090;52.604;13.318;2023-04-07T13:44:25;23.95;;;5.28;;
57233;SDS011;43090;52.604;13.318;2023-04-07T13:46:52;9.38;;;4.03;;
57233;SDS011;43090;52.604;13.318;2023-04-07T13:49:41;6.68;;;4.00;;
57233;SDS011;43090;52.604;13.318;2023-04-07T13:52:21;6.80;;;3.50;;
57233;SDS011;43090;52.604;13.318;2023-04-07T13:57:15;10.52;;;4.00;;
57233;SDS011;43090;52.604;13.318;2023-04-07T13:59:46;6.07;;;3.42;;
57233;SDS011;43090;52.604;13.318;2023-04-07T14:02:14;6.13;;;3.47;;
57233;SDS011;43090;52.604;13.318;2023-04-07T14:04:42;44.45;;;6.18;;
57233;SDS011;43090;52.604;13.318;2023-04-07T14:07:09;5.50;;;3.13;;
57233;SDS011;43090;52.604;13.318;2023-04-07T14:09:35;9.02;;;3.90;;
57233;SDS011;43090;52.604;13.318;2023-04-07T14:12:03;11.63;;;4.28;;
57233;SDS011;43090;52.604;13.318;2023-04-07T14:14:30;8.05;;;3.65;;
57233;SDS011;43090;52.604;13.318;2023-04-07T14:16:58;7.88;;;3.78;;
57233;SDS011;43090;52.604;13.318;2023-04-07T14:19:25;12.15;;;3.92;;
57233;SDS011;43090;52.604;13.318;2023-04-07T14:21:52;7.07;;;3.50;;
57233;SDS011;43090;52.604;13.318;2023-04-07T14:24:19;7.28;;;3.42;;
57233;SDS011;43090;52.604;13.318;2023-04-07T14:26:45;6.00;;;3.42;;
57233;SDS011;43090;52.604;13.318;2023-04-07T14:29:12;7.75;;;3.63;;
57233;SDS011;43090;52.604;13.318;2023-04-07T14:31:39;8.35;;;3.05;;
57233;SDS011;43090;52.604;13.318;2023-04-07T14:34:06;7.82;;;2.70;;
57233;SDS011;43090;52.604;13.318;2023-04-07T14:36:33;5.32;;;2.92;;
57233;SDS011;43090;52.604;13.318;2023-04-07T14:39:00;6.88;;;3.15;;
57233;SDS011;43090;52.604;13.318;2023-04-07T14:43:53;6.90;;;2.95;;
57233;SDS011;43090;52.604;13.318;2023-04-07T14:46:25;6.25;;;3.13;;
57233;SDS011;43090;52.604;13.318;2023-04-07T14:48:54;4.68;;;2.83;;
57233;SDS011;43090;52.604;13.318;2023-04-07T14:51:22;4.80;;;2.72;;
57233;SDS011;43090;52.604;13.318;2023-04-07T14:53:49;9.63;;;3.38;;
57233;SDS011;43090;52.604;13.318;2023-04-07T14:56:21;6.03;;;3.00;;
57233;SDS011;43090;52.604;13.318;2023-04-07T14:58:47;5.95;;;2.53;;
57233;SDS011;43090;52.604;13.318;2023-04-07T15:01:14;11.00;;;2.83;;
57233;SDS011;43090;52.604;13.318;2023-04-07T15:03:41;5.03;;;2.92;;
57233;SDS011;43090;52.604;13.318;2023-04-07T15:06:10;4.57;;;2.85;;
57233;SDS011;43090;52.604;13.318;2023-04-07T15:08:37;6.53;;;3.28;;
57233;SDS011;43090;52.604;13.318;2023-04-07T15:11:07;6.85;;;3.00;;
57233;SDS011;43090;52.604;13.318;2023-04-07T15:13:34;7.88;;;3.55;;
57233;SDS011;43090;52.604;13.318;2023-04-07T15:16:08;6.00;;;3.13;;
57233;SDS011;43090;52.604;13.318;2023-04-07T15:18:36;4.90;;;2.90;;
57233;SDS011;43090;52.604;13.318;2023-04-07T15:21:12;3.70;;;2.67;;
57233;SDS011;43090;52.604;13.318;2023-04-07T15:23:42;5.80;;;3.17;;
57233;SDS011;43090;52.604;13.318;2023-04-07T15:26:09;5.20;;;3.40;;
57233;SDS011;43090;52.604;13.318;2023-04-07T15:28:35;5.25;;;2.92;;
57233;SDS011;43090;52.604;13.318;2023-04-07T15:31:02;7.55;;;3.15;;
57233;SDS011;43090;52.604;13.318;2023-04-07T15:33:34;6.47;;;3.50;;
57233;SDS011;43090;52.604;13.318;2023-04-07T15:36:02;8.93;;;3.13;;
57233;SDS011;43090;52.604;13.318;2023-04-07T15:38:29;7.28;;;3.28;;
57233;SDS011;43090;52.604;13.318;2023-04-07T15:40:56;6.35;;;3.13;;
57233;SDS011;43090;52.604;13.318;2023-04-07T15:43:22;4.68;;;2.95;;
57233;SDS011;43090;52.604;13.318;2023-04-07T15:45:49;6.85;;;3.45;;
57233;SDS011;43090;52.604;13.318;2023-04-07T15:48:16;5.25;;;3.28;;
57233;SDS011;43090;52.604;13.318;2023-04-07T15:53:09;7.05;;;3.85;;
57233;SDS011;43090;52.604;13.318;2023-04-07T15:58:03;8.95;;;5.07;;
57233;SDS011;43090;52.604;13.318;2023-04-07T16:00:31;7.82;;;3.60;;
57233;SDS011;43090;52.604;13.318;2023-04-07T16:03:00;9.45;;;3.97;;
57233;SDS011;43090;52.604;13.318;2023-04-07T16:05:29;8.77;;;4.30;;
57233;SDS011;43090;52.604;13.318;2023-04-07T16:10:23;5.05;;;3.00;;
57233;SDS011;43090;52.604;13.318;2023-04-07T16:12:49;5.90;;;3.40;;
57233;SDS011;43090;52.604;13.318;2023-04-07T16:15:16;7.72;;;3.85;;
57233;SDS011;43090;52.604;13.318;2023-04-07T16:18:06;8.40;;;4.03;;
57233;SDS011;43090;52.604;13.318;2023-04-07T16:20:33;12.65;;;5.28;;
57233;SDS011;43090;52.604;13.318;2023-04-07T16:22:59;10.10;;;5.40;;
57233;SDS011;43090;52.604;13.318;2023-04-07T16:25:26;10.63;;;5.80;;
57233;SDS011;43090;52.604;13.318;2023-04-07T16:30:19;7.90;;;4.10;;
57233;SDS011;43090;52.604;13.318;2023-04-07T16:35:13;8.00;;;4.65;;